createdAt,value
2019-01-28T00:00:39.916Z,97.49
2019-01-28T00:01:39.895Z,96.48
2019-01-28T00:02:39.917Z,96.48
2019-01-28T00:03:39.867Z,95.22
2019-01-28T00:04:39.887Z,95.01
2019-01-28T00:05:39.842Z,95.22
2019-01-28T00:06:39.838Z,94.38
2019-01-28T00:07:39.832Z,94.27
2019-01-28T00:08:39.853Z,94.48
2019-01-28T00:09:39.804Z,94.42
2019-01-28T00:10:39.794Z,94.10
2019-01-28T00:11:39.786Z,93.89
2019-01-28T00:12:39.780Z,93.79
2019-01-28T00:13:39.786Z,93.83
2019-01-28T00:14:39.784Z,93.37
2019-01-28T00:15:39.750Z,93.99
2019-01-28T00:16:39.767Z,93.99
2019-01-28T00:17:39.720Z,93.79
2019-01-28T00:18:39.710Z,93.89
2019-01-28T00:19:39.733Z,93.99
2019-01-28T00:20:39.684Z,93.51
2019-01-28T00:21:39.710Z,93.05
2019-01-28T00:22:39.673Z,90.83
2019-01-28T00:23:39.701Z,88.83
2019-01-28T00:24:39.676Z,88.83
2019-01-28T00:25:39.632Z,89.57
2019-01-28T00:26:39.621Z,88.66
2019-01-28T00:27:39.615Z,88.77
2019-01-28T00:28:39.599Z,89.09
2019-01-28T00:29:39.640Z,89.29
2019-01-28T00:30:39.588Z,89.19
2019-01-28T00:31:39.574Z,89.23
2019-01-28T00:32:39.573Z,89.51
2019-01-28T00:33:39.567Z,89.34
2019-01-28T00:34:39.545Z,90.50
2019-01-28T00:35:39.598Z,91.02
2019-01-28T00:36:39.516Z,92.18
2019-01-28T00:37:39.516Z,92.29
2019-01-28T00:38:39.508Z,92.71
2019-01-28T00:39:39.635Z,92.92
2019-01-28T00:40:39.501Z,93.28
2019-01-28T00:41:39.494Z,92.76
2019-01-28T00:42:39.475Z,92.92
2019-01-28T00:43:39.449Z,93.18
2019-01-28T00:44:39.491Z,93.70
2019-01-28T00:45:39.420Z,93.18
2019-01-28T00:46:39.420Z,93.49
2019-01-28T00:47:39.406Z,93.80
2019-01-28T00:48:39.447Z,93.70
2019-01-28T00:49:39.381Z,94.12
2019-01-28T00:50:39.419Z,93.80
2019-01-28T00:51:39.357Z,93.91
2019-01-28T00:52:39.392Z,94.12
2019-01-28T00:53:39.340Z,94.17
2019-01-28T00:54:39.329Z,94.06
2019-01-28T00:55:39.314Z,93.91
2019-01-28T00:56:39.351Z,94.90
2019-01-28T00:57:39.297Z,94.06
2019-01-28T00:58:39.282Z,93.54
2019-01-28T00:59:39.286Z,93.80
2019-01-28T01:00:39.270Z,93.60
2019-01-28T01:01:39.252Z,93.01
2019-01-28T01:02:39.285Z,92.69
2019-01-28T01:03:39.260Z,93.01
2019-01-28T01:04:39.223Z,92.69
2019-01-28T01:05:39.215Z,93.43
2019-01-28T01:06:39.217Z,93.54
2019-01-28T01:07:39.190Z,93.54
2019-01-28T01:08:39.432Z,93.01
2019-01-28T01:09:39.168Z,92.90
2019-01-28T01:10:39.167Z,93.64
2019-01-28T01:11:39.157Z,93.11
2019-01-28T01:12:39.214Z,93.43
2019-01-28T01:13:39.141Z,93.43
2019-01-28T01:14:39.124Z,93.68
2019-01-28T01:15:39.104Z,93.74
2019-01-28T01:16:39.091Z,93.01
2019-01-28T01:17:39.164Z,92.69
2019-01-28T01:18:39.115Z,90.58
2019-01-28T01:19:39.076Z,88.78
2019-01-28T01:20:39.071Z,87.62
2019-01-28T01:21:39.093Z,88.36
2019-01-28T01:22:39.041Z,88.46
2019-01-28T01:23:39.030Z,88.57
2019-01-28T01:24:39.054Z,87.94
2019-01-28T01:25:39.001Z,87.94
2019-01-28T01:26:39.003Z,87.84
2019-01-28T01:27:38.997Z,87.87
2019-01-28T01:28:39.012Z,88.46
2019-01-28T01:29:39.005Z,88.26
2019-01-28T01:30:38.954Z,88.82
2019-01-28T01:31:38.937Z,88.29
2019-01-28T01:32:38.963Z,88.51
2019-01-28T01:33:38.964Z,88.51
2019-01-28T01:34:38.913Z,88.51
2019-01-28T01:35:38.903Z,88.29
2019-01-28T01:36:38.888Z,89.35
2019-01-28T01:37:38.897Z,89.46
2019-01-28T01:38:38.900Z,87.84
2019-01-28T01:39:38.864Z,86.40
2019-01-28T01:40:38.896Z,85.13
2019-01-28T01:41:38.835Z,84.98
2019-01-28T01:42:38.833Z,84.88
2019-01-28T01:43:38.815Z,84.98
2019-01-28T01:44:38.810Z,83.40
2019-01-28T01:45:38.816Z,83.33
2019-01-28T01:46:38.824Z,84.24
2019-01-28T01:47:38.786Z,83.82
2019-01-28T01:48:38.760Z,84.03
2019-01-28T01:49:38.759Z,83.44
2019-01-28T01:50:38.748Z,82.13
2019-01-28T01:51:38.735Z,84.07
2019-01-28T01:52:38.769Z,84.07
2019-01-28T01:53:38.712Z,85.13
2019-01-28T01:54:38.712Z,84.81
2019-01-28T01:55:38.701Z,85.34
2019-01-28T01:56:38.686Z,84.49
2019-01-28T01:57:38.676Z,82.28
2019-01-28T01:58:38.713Z,81.22
2019-01-28T01:59:38.647Z,82.91
2019-01-28T02:00:38.650Z,85.02
2019-01-28T02:01:38.646Z,82.38
2019-01-28T02:02:38.632Z,80.80
2019-01-28T02:03:38.645Z,81.01
2019-01-28T02:04:38.647Z,79.21
2019-01-28T02:05:38.783Z,80.90
2019-01-28T02:06:38.644Z,82.70
2019-01-28T02:07:38.565Z,80.80
2019-01-28T02:08:38.558Z,80.58
2019-01-28T02:09:38.562Z,80.90
2019-01-28T02:10:38.535Z,81.22
2019-01-28T02:11:38.519Z,81.74
2019-01-28T02:12:38.565Z,81.85
2019-01-28T02:13:38.509Z,83.65
2019-01-28T02:14:38.496Z,85.13
2019-01-28T02:15:38.481Z,85.23
2019-01-28T02:16:38.478Z,85.44
2019-01-28T02:17:38.475Z,86.18
2019-01-28T02:18:38.484Z,86.50
2019-01-28T02:19:38.445Z,86.92
2019-01-28T02:20:38.466Z,86.33
2019-01-28T02:21:38.421Z,85.44
2019-01-28T02:22:38.404Z,81.46
2019-01-28T02:23:38.403Z,81.89
2019-01-28T02:24:38.465Z,83.86
2019-01-28T02:25:38.379Z,84.95
2019-01-28T02:26:38.370Z,85.97
2019-01-28T02:27:38.363Z,86.18
2019-01-28T02:28:38.348Z,85.97
2019-01-28T02:29:38.337Z,85.44
2019-01-28T02:30:38.401Z,84.95
2019-01-28T02:31:38.318Z,85.06
2019-01-28T02:32:38.312Z,84.95
2019-01-28T02:33:38.301Z,85.80
2019-01-28T02:34:38.339Z,87.17
2019-01-28T02:35:38.301Z,86.11
2019-01-28T02:36:38.322Z,85.80
2019-01-28T02:37:38.264Z,85.80
2019-01-28T02:38:38.241Z,86.33
2019-01-28T02:39:38.282Z,87.28
2019-01-28T02:40:38.297Z,87.28
2019-01-28T02:41:38.205Z,85.69
2019-01-28T02:42:38.208Z,86.01
2019-01-28T02:43:38.193Z,85.21
2019-01-28T02:44:38.227Z,83.51
2019-01-28T02:45:38.163Z,84.36
2019-01-28T02:46:38.157Z,85.21
2019-01-28T02:47:38.156Z,86.05
2019-01-28T02:48:38.133Z,86.26
2019-01-28T02:49:38.129Z,87.32
2019-01-28T02:50:38.151Z,87.42
2019-01-28T02:51:38.121Z,86.68
2019-01-28T02:52:38.094Z,85.31
2019-01-28T02:53:38.100Z,83.30
2019-01-28T02:54:38.083Z,83.51
2019-01-28T02:55:38.072Z,83.83
2019-01-28T02:56:38.093Z,85.10
2019-01-28T02:57:38.047Z,85.21
2019-01-28T02:58:38.029Z,85.41
2019-01-28T02:59:38.028Z,86.26
2019-01-28T03:00:38.079Z,85.52
2019-01-28T03:01:38.004Z,85.52
2019-01-28T03:02:38.006Z,84.78
2019-01-28T03:03:37.984Z,85.21
2019-01-28T03:04:37.969Z,86.26
2019-01-28T03:05:37.955Z,86.68
2019-01-28T03:06:37.985Z,85.94
2019-01-28T03:07:37.952Z,86.26
2019-01-28T03:08:37.931Z,86.47
2019-01-28T03:09:37.937Z,86.26
2019-01-28T03:10:37.905Z,87.10
2019-01-28T03:11:37.929Z,86.90
2019-01-28T03:12:37.926Z,87.95
2019-01-28T03:13:37.882Z,88.31
2019-01-28T03:14:37.868Z,88.48
2019-01-28T03:15:37.860Z,88.90
2019-01-28T03:16:37.842Z,87.99
2019-01-28T03:17:37.853Z,88.31
2019-01-28T03:18:37.860Z,87.57
2019-01-28T03:19:37.818Z,87.10
2019-01-28T03:20:37.811Z,87.04
2019-01-28T03:21:37.789Z,87.36
2019-01-28T03:22:37.782Z,87.46
2019-01-28T03:23:37.789Z,86.83
2019-01-28T03:24:37.805Z,86.72
2019-01-28T03:25:37.757Z,87.36
2019-01-28T03:26:37.749Z,86.51
2019-01-28T03:27:37.731Z,86.83
2019-01-28T03:28:37.739Z,86.93
2019-01-28T03:29:37.761Z,87.68
2019-01-28T03:30:37.707Z,87.25
2019-01-28T03:31:37.726Z,87.46
2019-01-28T03:32:37.703Z,87.18
2019-01-28T03:33:37.666Z,87.15
2019-01-28T03:34:37.667Z,87.99
2019-01-28T03:35:37.692Z,88.20
2019-01-28T03:36:37.643Z,87.99
2019-01-28T03:37:37.637Z,88.35
2019-01-28T03:38:37.616Z,87.57
2019-01-28T03:39:37.734Z,88.10
2019-01-28T03:40:37.598Z,87.78
2019-01-28T03:41:37.619Z,87.93
2019-01-28T03:42:37.581Z,88.10
2019-01-28T03:43:37.605Z,88.67
2019-01-28T03:44:37.584Z,88.84
2019-01-28T03:45:37.541Z,88.84
2019-01-28T03:46:37.537Z,89.09
2019-01-28T03:47:37.526Z,88.56
2019-01-28T03:48:37.527Z,88.88
2019-01-28T03:49:37.535Z,88.98
2019-01-28T03:50:37.519Z,86.72
2019-01-28T03:51:37.487Z,86.83
2019-01-28T03:52:37.486Z,87.15
2019-01-28T03:53:37.499Z,84.50
2019-01-28T03:54:37.451Z,85.88
2019-01-28T03:55:37.449Z,85.77
2019-01-28T03:56:37.430Z,85.24
2019-01-28T03:57:37.421Z,85.98
2019-01-28T03:58:37.439Z,85.03
2019-01-28T03:59:37.469Z,83.76
2019-01-28T04:00:37.398Z,84.29
2019-01-28T04:01:37.378Z,83.65
2019-01-28T04:02:37.403Z,82.39
2019-01-28T04:03:37.409Z,82.49
2019-01-28T04:04:37.350Z,82.39
2019-01-28T04:05:37.342Z,82.70
2019-01-28T04:06:37.332Z,82.49
2019-01-28T04:07:37.309Z,82.49
2019-01-28T04:08:37.321Z,83.55
2019-01-28T04:09:37.333Z,82.60
2019-01-28T04:10:37.302Z,83.87
2019-01-28T04:11:37.314Z,84.01
2019-01-28T04:12:37.273Z,83.48
2019-01-28T04:13:37.262Z,83.27
2019-01-28T04:14:37.253Z,84.01
2019-01-28T04:15:37.224Z,84.86
2019-01-28T04:16:37.228Z,85.28
2019-01-28T04:17:37.242Z,85.28
2019-01-28T04:18:37.214Z,85.60
2019-01-28T04:19:37.226Z,85.49
2019-01-28T04:20:37.172Z,85.60
2019-01-28T04:21:37.172Z,86.02
2019-01-28T04:22:37.172Z,86.16
2019-01-28T04:23:37.178Z,86.48
2019-01-28T04:24:37.140Z,87.96
2019-01-28T04:25:37.161Z,87.23
2019-01-28T04:26:37.169Z,87.43
2019-01-28T04:27:37.114Z,87.01
2019-01-28T04:28:37.141Z,87.96
2019-01-28T04:29:37.081Z,87.75
2019-01-28T04:30:37.079Z,87.75
2019-01-28T04:31:37.097Z,88.39
2019-01-28T04:32:37.050Z,88.21
2019-01-28T04:33:37.052Z,88.32
2019-01-28T04:34:37.042Z,87.79
2019-01-28T04:35:37.024Z,85.78
2019-01-28T04:36:37.013Z,84.51
2019-01-28T04:37:37.062Z,83.66
2019-01-28T04:38:37.005Z,83.77
2019-01-28T04:39:36.983Z,85.36
2019-01-28T04:40:36.970Z,85.04
2019-01-28T04:41:36.969Z,85.99
2019-01-28T04:42:36.988Z,86.88
2019-01-28T04:43:36.939Z,88.01
2019-01-28T04:44:36.932Z,87.58
2019-01-28T04:45:36.935Z,87.19
2019-01-28T04:46:36.993Z,87.41
2019-01-28T04:47:36.895Z,87.51
2019-01-28T04:48:36.929Z,87.51
2019-01-28T04:49:36.918Z,87.41
2019-01-28T04:50:36.862Z,87.19
2019-01-28T04:51:36.854Z,87.77
2019-01-28T04:52:36.845Z,87.73
2019-01-28T04:53:36.852Z,87.98
2019-01-28T04:54:36.865Z,88.61
2019-01-28T04:55:36.840Z,87.87
2019-01-28T04:56:36.800Z,87.55
2019-01-28T04:57:36.791Z,87.55
2019-01-28T04:58:36.778Z,87.66
2019-01-28T04:59:36.801Z,88.09
2019-01-28T05:00:36.799Z,88.09
2019-01-28T05:01:36.749Z,84.80
2019-01-28T05:02:36.738Z,81.79
2019-01-28T05:03:36.735Z,85.08
2019-01-28T05:04:36.719Z,86.03
2019-01-28T05:05:36.702Z,86.88
2019-01-28T05:06:36.742Z,87.55
2019-01-28T05:07:36.690Z,87.24
2019-01-28T05:08:36.697Z,87.45
2019-01-28T05:09:36.669Z,85.96
2019-01-28T05:10:36.658Z,84.06
2019-01-28T05:11:36.642Z,83.74
2019-01-28T05:12:36.666Z,85.33
2019-01-28T05:13:36.623Z,85.33
2019-01-28T05:14:36.611Z,85.64
2019-01-28T05:15:36.594Z,85.43
2019-01-28T05:16:36.593Z,85.36
2019-01-28T05:17:36.610Z,86.28
2019-01-28T05:18:36.611Z,86.39
2019-01-28T05:19:36.558Z,86.60
2019-01-28T05:20:36.549Z,86.85
2019-01-28T05:21:36.531Z,85.89
2019-01-28T05:22:36.534Z,84.06
2019-01-28T05:23:36.513Z,83.95
2019-01-28T05:24:36.554Z,84.06
2019-01-28T05:25:36.496Z,82.71
2019-01-28T05:26:36.486Z,83.56
2019-01-28T05:27:36.524Z,83.63
2019-01-28T05:28:36.457Z,83.53
2019-01-28T05:29:36.448Z,81.73
2019-01-28T05:30:36.477Z,83.56
2019-01-28T05:31:36.430Z,84.20
2019-01-28T05:32:36.418Z,85.26
2019-01-28T05:33:36.416Z,84.20
2019-01-28T05:34:36.426Z,82.18
2019-01-28T05:35:36.380Z,82.71
2019-01-28T05:36:36.415Z,82.61
2019-01-28T05:37:36.373Z,81.62
2019-01-28T05:38:36.359Z,82.25
2019-01-28T05:39:36.340Z,81.62
2019-01-28T05:40:36.341Z,81.73
2019-01-28T05:41:36.325Z,80.13
2019-01-28T05:42:36.368Z,80.45
2019-01-28T05:43:36.304Z,82.36
2019-01-28T05:44:36.292Z,83.53
2019-01-28T05:45:36.321Z,83.67
2019-01-28T05:46:36.261Z,82.89
2019-01-28T05:47:36.257Z,82.78
2019-01-28T05:48:36.259Z,80.56
2019-01-28T05:49:36.243Z,81.09
2019-01-28T05:50:36.225Z,83.00
2019-01-28T05:51:36.256Z,83.42
2019-01-28T05:52:36.204Z,83.74
2019-01-28T05:53:36.195Z,84.06
2019-01-28T05:54:36.217Z,85.01
2019-01-28T05:55:36.179Z,85.75
2019-01-28T05:56:36.208Z,86.39
2019-01-28T05:57:36.316Z,86.11
2019-01-28T05:58:36.177Z,86.11
2019-01-28T05:59:36.136Z,85.36
2019-01-28T06:00:36.116Z,85.26
2019-01-28T06:01:36.121Z,85.47
2019-01-28T06:02:36.102Z,83.84
2019-01-28T06:03:36.119Z,83.88
2019-01-28T06:04:36.087Z,85.43
2019-01-28T06:05:36.064Z,83.95
2019-01-28T06:06:36.058Z,83.00
2019-01-28T06:07:36.044Z,84.16
2019-01-28T06:08:36.075Z,83.42
2019-01-28T06:09:36.039Z,84.16
2019-01-28T06:10:36.012Z,85.36
2019-01-28T06:11:36.011Z,83.74
2019-01-28T06:12:35.990Z,84.69
2019-01-28T06:13:35.985Z,85.43
2019-01-28T06:14:36.012Z,85.58
2019-01-28T06:15:35.969Z,85.22
2019-01-28T06:16:35.959Z,84.06
2019-01-28T06:17:38.946Z,85.05
2019-01-28T06:18:35.939Z,83.84
2019-01-28T06:19:35.914Z,82.89
2019-01-28T06:20:35.954Z,84.48
2019-01-28T06:21:35.911Z,84.91
2019-01-28T06:22:35.882Z,85.36
2019-01-28T06:23:35.875Z,85.75
2019-01-28T06:24:35.862Z,85.89
2019-01-28T06:25:35.893Z,86.11
2019-01-28T06:26:35.878Z,85.79
2019-01-28T06:27:35.844Z,85.22
2019-01-28T06:28:35.819Z,85.33
2019-01-28T06:29:35.814Z,85.05
2019-01-28T06:30:35.804Z,84.52
2019-01-28T06:31:35.799Z,85.11
2019-01-28T06:32:35.819Z,85.33
2019-01-28T06:33:35.796Z,83.88
2019-01-28T06:34:35.764Z,83.63
2019-01-28T06:35:35.754Z,83.53
2019-01-28T06:36:35.738Z,85.64
2019-01-28T06:37:35.748Z,85.75
2019-01-28T06:38:35.751Z,85.22
2019-01-28T06:39:36.875Z,84.20
2019-01-28T06:40:35.697Z,80.98
2019-01-28T06:41:35.732Z,78.44
2019-01-28T06:42:35.675Z,78.72
2019-01-28T06:43:35.719Z,80.10
2019-01-28T06:44:35.652Z,82.01
2019-01-28T06:45:35.636Z,83.95
2019-01-28T06:46:35.684Z,84.06
2019-01-28T06:47:35.618Z,84.80
2019-01-28T06:48:35.614Z,85.86
2019-01-28T06:49:35.632Z,85.96
2019-01-28T06:50:35.588Z,85.54
2019-01-28T06:51:35.575Z,84.69
2019-01-28T06:52:35.613Z,84.06
2019-01-28T06:53:35.559Z,82.89
2019-01-28T06:54:35.544Z,81.90
2019-01-28T06:55:35.546Z,83.00
2019-01-28T06:56:35.543Z,80.98
2019-01-28T06:57:35.526Z,79.78
2019-01-28T06:58:35.557Z,81.05
2019-01-28T06:59:35.546Z,82.15
2019-01-28T07:00:35.485Z,83.06
2019-01-28T07:01:35.490Z,83.28
2019-01-28T07:02:35.465Z,84.01
2019-01-28T07:03:35.454Z,84.66
2019-01-28T07:04:35.461Z,84.12
2019-01-28T07:05:35.471Z,85.08
2019-01-28T07:06:35.428Z,85.11
2019-01-28T07:07:35.422Z,85.11
2019-01-28T07:08:35.403Z,85.29
2019-01-28T07:09:35.395Z,85.01
2019-01-28T07:10:35.383Z,85.82
2019-01-28T07:11:35.414Z,85.11
2019-01-28T07:12:35.366Z,85.18
2019-01-28T07:13:35.350Z,85.82
2019-01-28T07:14:35.368Z,85.01
2019-01-28T07:15:35.327Z,85.39
2019-01-28T07:16:35.322Z,85.18
2019-01-28T07:17:35.367Z,85.50
2019-01-28T07:18:35.300Z,85.75
2019-01-28T07:19:35.285Z,85.93
2019-01-28T07:20:35.287Z,85.93
2019-01-28T07:21:35.261Z,85.96
2019-01-28T07:22:35.304Z,85.61
2019-01-28T07:23:35.441Z,86.18
2019-01-28T07:24:35.233Z,86.71
2019-01-28T07:25:35.231Z,86.07
2019-01-28T07:26:35.210Z,83.81
2019-01-28T07:27:35.236Z,81.05
2019-01-28T07:28:35.229Z,82.32
2019-01-28T07:29:35.178Z,82.07
2019-01-28T07:30:35.169Z,82.32
2019-01-28T07:31:35.856Z,83.24
2019-01-28T07:32:35.867Z,83.59
2019-01-28T07:33:35.155Z,82.64
2019-01-28T07:34:35.330Z,82.75
2019-01-28T07:35:35.111Z,82.71
2019-01-28T07:36:35.106Z,82.50
2019-01-28T07:37:35.098Z,83.77
2019-01-28T07:38:35.090Z,83.87
2019-01-28T07:39:35.102Z,82.75
2019-01-28T07:40:35.109Z,77.20
2019-01-28T07:41:35.072Z,76.78
2019-01-28T07:42:36.878Z,79.64
2019-01-28T07:43:35.854Z,81.01
2019-01-28T07:44:35.165Z,83.66
2019-01-28T07:45:35.018Z,82.81
2019-01-28T07:46:35.037Z,83.34
2019-01-28T07:47:34.994Z,82.29
2019-01-28T07:48:34.983Z,80.91
2019-01-28T07:49:34.970Z,81.97
2019-01-28T07:50:34.965Z,81.12
2019-01-28T07:51:35.154Z,80.91
2019-01-28T07:52:34.940Z,81.23
2019-01-28T07:53:35.120Z,81.01
2019-01-28T07:54:34.939Z,81.65
2019-01-28T07:55:34.903Z,81.93
2019-01-28T07:56:34.901Z,82.35
2019-01-28T07:57:34.919Z,82.04
2019-01-28T07:58:34.881Z,80.77
2019-01-28T07:59:34.916Z,81.82
2019-01-28T08:00:34.949Z,81.62
2019-01-28T08:01:34.929Z,81.15
2019-01-28T08:02:34.921Z,81.68
2019-01-28T08:03:34.860Z,80.80
2019-01-28T08:04:34.822Z,80.80
2019-01-28T08:05:34.857Z,80.69
2019-01-28T08:06:34.788Z,80.55
2019-01-28T08:07:34.778Z,80.44
2019-01-28T08:08:34.768Z,77.48
2019-01-28T08:09:34.785Z,77.38
2019-01-28T08:10:34.740Z,78.47
2019-01-28T08:11:34.727Z,79.74
2019-01-28T08:12:34.719Z,80.80
2019-01-28T08:13:34.846Z,81.01
2019-01-28T08:14:34.703Z,80.66
2019-01-28T08:15:34.727Z,80.87
2019-01-28T08:16:34.863Z,80.76
2019-01-28T08:17:34.664Z,80.87
2019-01-28T08:18:34.660Z,80.83
2019-01-28T08:19:34.645Z,80.98
2019-01-28T08:20:34.633Z,81.40
2019-01-28T08:21:34.701Z,81.82
2019-01-28T08:22:34.617Z,81.82
2019-01-28T08:23:34.600Z,81.93
2019-01-28T08:24:34.604Z,82.03
2019-01-28T08:25:34.578Z,81.40
2019-01-28T08:26:34.568Z,81.08
2019-01-28T08:27:35.225Z,81.08
2019-01-28T08:28:37.001Z,80.34
2019-01-28T08:29:35.073Z,79.77
2019-01-28T08:30:34.527Z,79.53
2019-01-28T08:31:34.515Z,78.16
2019-01-28T08:32:34.506Z,78.61
2019-01-28T08:33:34.530Z,79.99
2019-01-28T08:34:34.488Z,80.62
2019-01-28T08:35:34.487Z,81.26
2019-01-28T08:36:34.469Z,81.89
2019-01-28T08:37:34.456Z,82.56
2019-01-28T08:38:34.447Z,83.51
2019-01-28T08:39:34.471Z,83.51
2019-01-28T08:40:34.421Z,84.25
2019-01-28T08:41:34.413Z,85.10
2019-01-28T08:42:34.420Z,84.99
2019-01-28T08:43:34.393Z,84.81
2019-01-28T08:44:34.379Z,83.75
2019-01-28T08:45:34.419Z,83.86
2019-01-28T08:46:34.407Z,83.33
2019-01-28T08:47:34.349Z,83.23
2019-01-28T08:48:34.342Z,83.12
2019-01-28T08:49:34.325Z,83.23
2019-01-28T08:50:34.331Z,83.33
2019-01-28T08:51:34.309Z,83.90
2019-01-28T08:52:34.335Z,80.69
2019-01-28T08:53:34.288Z,80.41
2019-01-28T08:54:34.280Z,80.69
2019-01-28T08:55:34.324Z,79.43
2019-01-28T08:56:34.416Z,79.57
2019-01-28T08:57:34.257Z,79.63
2019-01-28T08:58:34.432Z,78.05
2019-01-28T08:59:34.224Z,78.05
2019-01-28T09:00:34.227Z,77.70
2019-01-28T09:01:34.240Z,75.73
2019-01-28T09:02:34.203Z,76.01
2019-01-28T09:03:34.203Z,75.09
2019-01-28T09:04:34.176Z,74.25
2019-01-28T09:05:34.739Z,73.79
2019-01-28T09:06:34.155Z,73.02
2019-01-28T09:07:34.381Z,72.07
2019-01-28T09:08:34.281Z,70.56
2019-01-28T09:09:34.136Z,70.03
2019-01-28T09:10:34.119Z,70.25
2019-01-28T09:11:34.102Z,69.71
2019-01-28T09:12:35.123Z,69.71
2019-01-28T09:13:34.140Z,70.10
2019-01-28T09:14:34.073Z,68.60
2019-01-28T09:15:34.058Z,67.76
2019-01-28T09:16:34.087Z,68.07
2019-01-28T09:17:34.039Z,67.76
2019-01-28T09:18:34.077Z,69.45
2019-01-28T09:19:34.019Z,74.40
2019-01-28T09:20:35.008Z,77.42
2019-01-28T09:21:33.995Z,76.86
2019-01-28T09:22:33.983Z,75.70
2019-01-28T09:23:34.020Z,72.92
2019-01-28T09:24:33.971Z,71.63
2019-01-28T09:25:33.960Z,70.09
2019-01-28T09:26:33.943Z,73.41
2019-01-28T09:27:33.955Z,76.72
2019-01-28T09:28:33.929Z,78.54
2019-01-28T09:29:33.941Z,80.44
2019-01-28T09:30:33.934Z,80.33
2019-01-28T09:31:33.882Z,80.54
2019-01-28T09:32:33.881Z,79.70
2019-01-28T09:33:33.867Z,77.77
2019-01-28T09:34:33.859Z,77.10
2019-01-28T09:35:33.851Z,74.68
2019-01-28T09:36:33.894Z,73.73
2019-01-28T09:37:33.828Z,75.42
2019-01-28T09:38:33.819Z,73.94
2019-01-28T09:39:33.805Z,72.75
2019-01-28T09:40:33.802Z,72.33
2019-01-28T09:41:35.637Z,71.98
2019-01-28T09:42:33.787Z,71.08
2019-01-28T09:43:34.279Z,67.95
2019-01-28T09:44:33.754Z,67.77
2019-01-28T09:45:33.740Z,67.98
2019-01-28T09:46:33.731Z,68.08
2019-01-28T09:47:33.762Z,68.08
2019-01-28T09:48:34.528Z,67.03
2019-01-28T09:49:33.710Z,65.53
2019-01-28T09:50:33.698Z,63.82
2019-01-28T09:51:33.681Z,63.55
2019-01-28T09:52:33.674Z,61.24
2019-01-28T09:53:33.660Z,61.03
2019-01-28T09:54:33.680Z,61.37
2019-01-28T09:55:33.637Z,61.71
2019-01-28T09:56:33.660Z,62.69
2019-01-28T09:57:33.620Z,62.35
2019-01-28T09:58:33.602Z,61.43
2019-01-28T09:59:33.598Z,62.06
2019-01-28T10:00:33.624Z,61.64
2019-01-28T10:01:33.567Z,61.82
2019-01-28T10:02:33.560Z,62.32
2019-01-28T10:03:33.607Z,62.29
2019-01-28T10:04:33.547Z,62.01
2019-01-28T10:05:33.541Z,68.17
2019-01-28T10:06:33.536Z,69.54
2019-01-28T10:07:33.511Z,69.01
2019-01-28T10:08:33.501Z,67.69
2019-01-28T10:09:33.543Z,65.62
2019-01-28T10:10:33.485Z,60.82
2019-01-28T10:11:33.476Z,54.21
2019-01-28T10:12:34.616Z,50.17
2019-01-28T10:13:33.473Z,53.23
2019-01-28T10:14:33.447Z,55.76
2019-01-28T10:15:33.463Z,56.07
2019-01-28T10:16:33.418Z,56.81
2019-01-28T10:17:33.423Z,57.30
2019-01-28T10:18:33.397Z,59.14
2019-01-28T10:19:33.381Z,60.29
2019-01-28T10:20:33.381Z,59.87
2019-01-28T10:21:33.418Z,60.45
2019-01-28T10:22:33.353Z,63.42
2019-01-28T10:23:33.343Z,64.47
2019-01-28T10:24:33.334Z,64.26
2019-01-28T10:25:33.334Z,62.13
2019-01-28T10:26:33.307Z,60.94
2019-01-28T10:27:33.359Z,61.58
2019-01-28T10:28:33.287Z,61.79
2019-01-28T10:29:33.281Z,62.76
2019-01-28T10:30:33.271Z,62.05
2019-01-28T10:31:33.259Z,62.23
2019-01-28T10:32:36.210Z,61.40
2019-01-28T10:33:33.269Z,60.87
2019-01-28T10:34:33.269Z,61.42
2019-01-28T10:35:33.222Z,60.06
2019-01-28T10:36:34.311Z,58.85
2019-01-28T10:37:33.191Z,56.01
2019-01-28T10:38:33.190Z,56.67
2019-01-28T10:39:33.226Z,59.69
2019-01-28T10:40:33.161Z,59.45
2019-01-28T10:41:33.182Z,58.59
2019-01-28T10:42:33.137Z,59.03
2019-01-28T10:43:33.125Z,55.65
2019-01-28T10:44:33.127Z,54.89
2019-01-28T10:45:33.105Z,54.78
2019-01-28T10:46:33.098Z,53.52
2019-01-28T10:47:33.123Z,53.81
2019-01-28T10:48:33.072Z,54.63
2019-01-28T10:49:33.060Z,55.99
2019-01-28T10:50:33.050Z,56.54
2019-01-28T10:51:33.051Z,52.66
2019-01-28T10:52:33.029Z,52.89
2019-01-28T10:53:33.061Z,55.60
2019-01-28T10:54:33.009Z,54.08
2019-01-28T10:55:32.999Z,50.52
2019-01-28T10:56:32.989Z,49.61
2019-01-28T10:57:32.976Z,48.84
2019-01-28T10:58:32.967Z,50.41
2019-01-28T10:59:33.005Z,50.05
2019-01-28T11:00:32.953Z,50.83
2019-01-28T11:01:32.935Z,48.57
2019-01-28T11:02:32.974Z,50.16
2019-01-28T11:03:32.916Z,52.60
2019-01-28T11:04:32.902Z,51.34
2019-01-28T11:05:33.387Z,51.21
2019-01-28T11:06:32.899Z,51.40
2019-01-28T11:07:32.871Z,50.85
2019-01-28T11:08:32.901Z,49.59
2019-01-28T11:09:32.959Z,48.75
2019-01-28T11:10:32.852Z,51.29
2019-01-28T11:11:32.849Z,50.85
2019-01-28T11:12:32.911Z,51.69
2019-01-28T11:13:32.877Z,51.35
2019-01-28T11:14:32.898Z,49.47
2019-01-28T11:15:32.804Z,49.65
2019-01-28T11:16:32.805Z,48.48
2019-01-28T11:17:32.845Z,49.63
2019-01-28T11:18:32.904Z,49.84
2019-01-28T11:19:32.756Z,48.54
2019-01-28T11:20:32.961Z,48.35
2019-01-28T11:21:32.785Z,48.14
2019-01-28T11:22:32.716Z,48.44
2019-01-28T11:23:32.833Z,48.44
2019-01-28T11:24:32.705Z,47.08
2019-01-28T11:25:32.712Z,46.49
2019-01-28T11:26:32.884Z,46.83
2019-01-28T11:27:32.850Z,46.91
2019-01-28T11:28:32.801Z,49.25
2019-01-28T11:29:32.824Z,48.77
2019-01-28T11:30:32.749Z,49.52
2019-01-28T11:31:32.662Z,49.47
2019-01-28T11:32:32.855Z,50.41
2019-01-28T11:33:32.730Z,51.77
2019-01-28T11:34:32.633Z,51.67
2019-01-28T11:35:32.753Z,49.47
2019-01-28T11:36:32.562Z,49.88
2019-01-28T11:37:32.656Z,49.99
2019-01-28T11:38:32.619Z,50.51
2019-01-28T11:39:32.525Z,50.41
2019-01-28T11:40:32.603Z,50.20
2019-01-28T11:41:32.848Z,49.28
2019-01-28T11:42:32.596Z,49.38
2019-01-28T11:43:32.590Z,49.22
2019-01-28T11:44:32.497Z,51.11
2019-01-28T11:45:32.504Z,50.14
2019-01-28T11:46:32.456Z,49.41
2019-01-28T11:47:32.512Z,48.86
2019-01-28T11:48:32.998Z,49.70
2019-01-28T11:49:32.510Z,48.52
2019-01-28T11:50:32.418Z,46.89
2019-01-28T11:51:32.425Z,47.43
2019-01-28T11:52:32.430Z,48.39
2019-01-28T11:53:32.392Z,48.65
2019-01-28T11:54:32.433Z,48.19
2019-01-28T11:55:32.388Z,49.74
2019-01-28T11:56:32.348Z,48.31
2019-01-28T11:57:32.338Z,47.51
2019-01-28T11:58:32.402Z,47.95
2019-01-28T11:59:32.313Z,50.01
2019-01-28T12:00:32.331Z,50.57
2019-01-28T12:01:32.296Z,50.20
2019-01-28T12:02:34.406Z,51.90
2019-01-28T12:03:32.284Z,52.76
2019-01-28T12:04:32.304Z,53.34
2019-01-28T12:05:32.356Z,54.60
2019-01-28T12:06:32.238Z,54.41
2019-01-28T12:07:32.230Z,55.88
2019-01-28T12:08:32.236Z,56.20
2019-01-28T12:09:32.222Z,54.81
2019-01-28T12:10:32.235Z,52.92
2019-01-28T12:11:32.192Z,52.79
2019-01-28T12:12:32.181Z,51.82
2019-01-28T12:13:32.167Z,49.38
2019-01-28T12:14:32.152Z,49.59
2019-01-28T12:15:32.140Z,49.55
2019-01-28T12:16:32.195Z,47.89
2019-01-28T12:17:32.129Z,47.81
2019-01-28T12:18:32.106Z,48.21
2019-01-28T12:19:32.122Z,48.33
2019-01-28T12:20:32.091Z,48.65
2019-01-28T12:21:32.129Z,48.15
2019-01-28T12:22:32.075Z,48.88
2019-01-28T12:23:34.468Z,49.51
2019-01-28T12:24:32.050Z,49.28
2019-01-28T12:25:32.046Z,48.55
2019-01-28T12:26:32.022Z,48.17
2019-01-28T12:27:32.057Z,49.70
2019-01-28T12:28:32.004Z,49.91
2019-01-28T12:29:32.004Z,49.41
2019-01-28T12:30:31.987Z,49.49
2019-01-28T12:31:31.999Z,47.45
2019-01-28T12:32:31.959Z,44.81
2019-01-28T12:33:32.005Z,46.80
2019-01-28T12:34:31.946Z,48.55
2019-01-28T12:35:31.935Z,50.24
2019-01-28T12:36:31.926Z,48.07
2019-01-28T12:37:31.931Z,50.71
2019-01-28T12:38:31.903Z,50.63
2019-01-28T12:39:31.948Z,51.05
2019-01-28T12:40:31.882Z,51.89
2019-01-28T12:41:31.873Z,52.44
2019-01-28T12:42:31.859Z,52.04
2019-01-28T12:43:31.856Z,51.70
2019-01-28T12:44:31.892Z,51.70
2019-01-28T12:45:31.891Z,52.65
2019-01-28T12:46:31.823Z,53.83
2019-01-28T12:47:31.809Z,54.12
2019-01-28T12:48:31.801Z,53.20
2019-01-28T12:49:31.792Z,54.14
2019-01-28T12:50:31.781Z,54.67
2019-01-28T12:51:31.821Z,54.75
2019-01-28T12:52:31.760Z,54.99